sensor_id;sensor_type;location;lat;lon;timestamp;P1;durP1;ratioP1;P2;durP2;ratioP2
10232;SDS011;5161;48.174;11.756;2023-02-02T00:01:38;6.93;;;3.00;;
10232;SDS011;5161;48.174;11.756;2023-02-02T00:04:04;5.77;;;2.70;;
10232;SDS011;5161;48.174;11.756;2023-02-02T00:06:30;8.60;;;2.80;;
10232;SDS011;5161;48.174;11.756;2023-02-02T00:08:57;9.50;;;3.03;;
10232;SDS011;5161;48.174;11.756;2023-02-02T00:11:23;8.57;;;3.07;;
10232;SDS011;5161;48.174;11.756;2023-02-02T00:13:49;5.47;;;2.83;;
10232;SDS011;5161;48.174;11.756;2023-02-02T00:19:00;6.67;;;2.80;;
10232;SDS011;5161;48.174;11.756;2023-02-02T00:21:27;6.80;;;3.00;;
10232;SDS011;5161;48.174;11.756;2023-02-02T00:23:53;6.10;;;2.77;;
10232;SDS011;5161;48.174;11.756;2023-02-02T00:26:20;4.73;;;2.80;;
10232;SDS011;5161;48.174;11.756;2023-02-02T00:28:46;6.03;;;2.60;;
10232;SDS011;5161;48.174;11.756;2023-02-02T00:31:11;9.27;;;2.90;;
10232;SDS011;5161;48.174;11.756;2023-02-02T00:33:37;7.90;;;2.67;;
10232;SDS011;5161;48.174;11.756;2023-02-02T00:36:03;7.20;;;2.77;;
10232;SDS011;5161;48.174;11.756;2023-02-02T00:38:29;6.40;;;2.53;;
10232;SDS011;5161;48.174;11.756;2023-02-02T00:40:55;5.60;;;2.73;;
10232;SDS011;5161;48.174;11.756;2023-02-02T00:43:21;6.13;;;2.63;;
10232;SDS011;5161;48.174;11.756;2023-02-02T00:45:47;5.10;;;2.80;;
10232;SDS011;5161;48.174;11.756;2023-02-02T00:48:13;6.60;;;2.73;;
10232;SDS011;5161;48.174;11.756;2023-02-02T00:50:39;8.00;;;3.13;;
10232;SDS011;5161;48.174;11.756;2023-02-02T00:53:04;5.10;;;2.47;;
10232;SDS011;5161;48.174;11.756;2023-02-02T00:55:30;8.03;;;2.60;;
10232;SDS011;5161;48.174;11.756;2023-02-02T00:57:55;5.97;;;2.67;;
10232;SDS011;5161;48.174;11.756;2023-02-02T01:00:23;6.10;;;2.87;;
10232;SDS011;5161;48.174;11.756;2023-02-02T01:02:50;5.90;;;2.70;;
10232;SDS011;5161;48.174;11.756;2023-02-02T01:05:16;7.77;;;2.80;;
10232;SDS011;5161;48.174;11.756;2023-02-02T01:07:43;4.30;;;2.47;;
10232;SDS011;5161;48.174;11.756;2023-02-02T01:10:13;7.17;;;2.40;;
10232;SDS011;5161;48.174;11.756;2023-02-02T01:12:40;4.90;;;2.60;;
10232;SDS011;5161;48.174;11.756;2023-02-02T01:15:06;7.40;;;2.70;;
10232;SDS011;5161;48.174;11.756;2023-02-02T01:17:33;6.13;;;2.53;;
10232;SDS011;5161;48.174;11.756;2023-02-02T01:19:58;4.23;;;2.50;;
10232;SDS011;5161;48.174;11.756;2023-02-02T01:22:24;3.63;;;2.73;;
10232;SDS011;5161;48.174;11.756;2023-02-02T01:24:50;7.13;;;2.87;;
10232;SDS011;5161;48.174;11.756;2023-02-02T01:27:16;9.07;;;3.10;;
10232;SDS011;5161;48.174;11.756;2023-02-02T01:29:41;7.03;;;3.30;;
10232;SDS011;5161;48.174;11.756;2023-02-02T01:32:07;7.30;;;2.80;;
10232;SDS011;5161;48.174;11.756;2023-02-02T01:34:32;6.97;;;3.10;;
10232;SDS011;5161;48.174;11.756;2023-02-02T01:36:58;7.43;;;2.73;;
10232;SDS011;5161;48.174;11.756;2023-02-02T01:39:24;10.07;;;2.97;;
10232;SDS011;5161;48.174;11.756;2023-02-02T01:41:50;8.00;;;2.67;;
10232;SDS011;5161;48.174;11.756;2023-02-02T01:47:19;7.93;;;3.00;;
10232;SDS011;5161;48.174;11.756;2023-02-02T01:49:47;5.67;;;3.00;;
10232;SDS011;5161;48.174;11.756;2023-02-02T01:52:14;5.23;;;2.60;;
10232;SDS011;5161;48.174;11.756;2023-02-02T01:54:44;8.27;;;2.80;;
10232;SDS011;5161;48.174;11.756;2023-02-02T01:59:48;4.80;;;3.10;;
10232;SDS011;5161;48.174;11.756;2023-02-02T02:02:16;7.27;;;2.77;;
10232;SDS011;5161;48.174;11.756;2023-02-02T02:04:42;6.40;;;2.70;;
10232;SDS011;5161;48.174;11.756;2023-02-02T02:07:08;7.87;;;2.60;;
10232;SDS011;5161;48.174;11.756;2023-02-02T02:09:34;7.07;;;3.00;;
10232;SDS011;5161;48.174;11.756;2023-02-02T02:12:00;6.07;;;2.60;;
10232;SDS011;5161;48.174;11.756;2023-02-02T02:14:26;6.77;;;2.73;;
10232;SDS011;5161;48.174;11.756;2023-02-02T02:29:02;6.03;;;2.70;;
10232;SDS011;5161;48.174;11.756;2023-02-02T02:34:38;6.23;;;2.53;;
10232;SDS011;5161;48.174;11.756;2023-02-02T02:37:18;8.33;;;3.10;;
10232;SDS011;5161;48.174;11.756;2023-02-02T02:42:21;6.73;;;2.80;;
10232;SDS011;5161;48.174;11.756;2023-02-02T02:44:49;7.27;;;2.97;;
10232;SDS011;5161;48.174;11.756;2023-02-02T02:47:17;6.23;;;2.80;;
10232;SDS011;5161;48.174;11.756;2023-02-02T02:49:44;5.37;;;3.20;;
10232;SDS011;5161;48.174;11.756;2023-02-02T02:52:12;5.40;;;3.00;;
10232;SDS011;5161;48.174;11.756;2023-02-02T02:54:46;6.83;;;2.90;;
10232;SDS011;5161;48.174;11.756;2023-02-02T03:00:19;7.10;;;3.13;;
10232;SDS011;5161;48.174;11.756;2023-02-02T03:06:07;5.40;;;2.60;;
10232;SDS011;5161;48.174;11.756;2023-02-02T03:08:38;5.80;;;2.67;;
10232;SDS011;5161;48.174;11.756;2023-02-02T03:11:09;5.73;;;3.00;;
10232;SDS011;5161;48.174;11.756;2023-02-02T03:13:36;6.97;;;2.47;;
10232;SDS011;5161;48.174;11.756;2023-02-02T03:16:03;5.77;;;2.60;;
10232;SDS011;5161;48.174;11.756;2023-02-02T03:18:29;6.67;;;3.17;;
10232;SDS011;5161;48.174;11.756;2023-02-02T03:20:56;6.90;;;2.67;;
10232;SDS011;5161;48.174;11.756;2023-02-02T03:23:22;6.33;;;2.73;;
10232;SDS011;5161;48.174;11.756;2023-02-02T03:25:48;4.83;;;2.30;;
10232;SDS011;5161;48.174;11.756;2023-02-02T03:28:14;9.13;;;3.20;;
10232;SDS011;5161;48.174;11.756;2023-02-02T03:30:41;7.07;;;3.00;;
10232;SDS011;5161;48.174;11.756;2023-02-02T03:33:08;8.27;;;3.20;;
10232;SDS011;5161;48.174;11.756;2023-02-02T03:35:34;7.40;;;3.03;;
10232;SDS011;5161;48.174;11.756;2023-02-02T03:38:00;6.23;;;3.17;;
10232;SDS011;5161;48.174;11.756;2023-02-02T03:40:26;9.00;;;3.00;;
10232;SDS011;5161;48.174;11.756;2023-02-02T03:42:52;6.37;;;3.10;;
10232;SDS011;5161;48.174;11.756;2023-02-02T03:45:18;6.03;;;2.93;;
10232;SDS011;5161;48.174;11.756;2023-02-02T03:47:44;6.03;;;2.97;;
10232;SDS011;5161;48.174;11.756;2023-02-02T03:50:10;6.07;;;2.77;;
10232;SDS011;5161;48.174;11.756;2023-02-02T03:52:35;7.80;;;3.10;;
10232;SDS011;5161;48.174;11.756;2023-02-02T03:55:01;4.57;;;2.63;;
10232;SDS011;5161;48.174;11.756;2023-02-02T03:57:26;8.13;;;3.00;;
10232;SDS011;5161;48.174;11.756;2023-02-02T03:59:52;9.93;;;3.00;;
10232;SDS011;5161;48.174;11.756;2023-02-02T04:02:18;9.80;;;3.10;;
10232;SDS011;5161;48.174;11.756;2023-02-02T04:04:43;8.73;;;2.93;;
10232;SDS011;5161;48.174;11.756;2023-02-02T04:07:09;7.20;;;2.97;;
10232;SDS011;5161;48.174;11.756;2023-02-02T04:09:34;9.17;;;3.10;;
10232;SDS011;5161;48.174;11.756;2023-02-02T04:12:00;9.00;;;3.00;;
10232;SDS011;5161;48.174;11.756;2023-02-02T04:14:26;7.13;;;3.00;;
10232;SDS011;5161;48.174;11.756;2023-02-02T04:16:51;6.53;;;3.23;;
10232;SDS011;5161;48.174;11.756;2023-02-02T04:19:17;3.97;;;2.67;;
10232;SDS011;5161;48.174;11.756;2023-02-02T04:21:42;5.87;;;2.70;;
10232;SDS011;5161;48.174;11.756;2023-02-02T04:24:11;7.13;;;2.90;;
10232;SDS011;5161;48.174;11.756;2023-02-02T04:26:38;6.60;;;2.80;;
10232;SDS011;5161;48.174;11.756;2023-02-02T04:29:03;6.53;;;2.70;;
10232;SDS011;5161;48.174;11.756;2023-02-02T04:31:29;8.10;;;2.87;;
10232;SDS011;5161;48.174;11.756;2023-02-02T04:33:56;6.00;;;2.97;;
10232;SDS011;5161;48.174;11.756;2023-02-02T04:36:21;7.27;;;3.07;;
10232;SDS011;5161;48.174;11.756;2023-02-02T04:38:48;6.90;;;2.60;;
10232;SDS011;5161;48.174;11.756;2023-02-02T04:41:14;7.07;;;2.63;;
10232;SDS011;5161;48.174;11.756;2023-02-02T04:43:40;4.83;;;2.90;;
10232;SDS011;5161;48.174;11.756;2023-02-02T04:46:06;4.07;;;2.63;;
10232;SDS011;5161;48.174;11.756;2023-02-02T04:48:31;5.53;;;2.90;;
10232;SDS011;5161;48.174;11.756;2023-02-02T04:51:01;5.87;;;2.73;;
10232;SDS011;5161;48.174;11.756;2023-02-02T04:53:28;6.27;;;2.90;;
10232;SDS011;5161;48.174;11.756;2023-02-02T04:55:54;5.33;;;2.70;;
10232;SDS011;5161;48.174;11.756;2023-02-02T04:58:20;5.77;;;2.40;;
10232;SDS011;5161;48.174;11.756;2023-02-02T05:00:46;6.53;;;2.80;;
10232;SDS011;5161;48.174;11.756;2023-02-02T05:03:11;6.53;;;2.83;;
10232;SDS011;5161;48.174;11.756;2023-02-02T05:05:37;9.33;;;3.03;;
10232;SDS011;5161;48.174;11.756;2023-02-02T05:08:02;6.67;;;2.60;;
10232;SDS011;5161;48.174;11.756;2023-02-02T05:10:28;5.83;;;2.80;;
10232;SDS011;5161;48.174;11.756;2023-02-02T05:12:54;4.40;;;2.43;;
10232;SDS011;5161;48.174;11.756;2023-02-02T05:15:20;5.40;;;2.67;;
10232;SDS011;5161;48.174;11.756;2023-02-02T05:17:49;8.00;;;2.80;;
10232;SDS011;5161;48.174;11.756;2023-02-02T05:20:15;7.03;;;2.90;;
10232;SDS011;5161;48.174;11.756;2023-02-02T05:22:41;5.07;;;2.50;;
10232;SDS011;5161;48.174;11.756;2023-02-02T05:25:07;7.17;;;2.73;;
10232;SDS011;5161;48.174;11.756;2023-02-02T05:27:33;6.00;;;3.13;;
10232;SDS011;5161;48.174;11.756;2023-02-02T05:29:59;4.00;;;2.80;;
10232;SDS011;5161;48.174;11.756;2023-02-02T05:32:25;8.63;;;3.00;;
10232;SDS011;5161;48.174;11.756;2023-02-02T05:34:53;7.33;;;3.10;;
10232;SDS011;5161;48.174;11.756;2023-02-02T05:37:19;5.30;;;2.80;;
10232;SDS011;5161;48.174;11.756;2023-02-02T05:39:45;4.50;;;2.47;;
10232;SDS011;5161;48.174;11.756;2023-02-02T05:42:10;5.57;;;3.20;;
10232;SDS011;5161;48.174;11.756;2023-02-02T05:44:36;5.70;;;3.17;;
10232;SDS011;5161;48.174;11.756;2023-02-02T05:47:01;8.83;;;3.20;;
10232;SDS011;5161;48.174;11.756;2023-02-02T05:49:27;6.17;;;2.90;;
10232;SDS011;5161;48.174;11.756;2023-02-02T05:51:53;4.43;;;2.73;;
10232;SDS011;5161;48.174;11.756;2023-02-02T05:54:21;6.33;;;2.40;;
10232;SDS011;5161;48.174;11.756;2023-02-02T05:56:48;4.37;;;2.40;;
10232;SDS011;5161;48.174;11.756;2023-02-02T05:59:15;4.70;;;2.37;;
10232;SDS011;5161;48.174;11.756;2023-02-02T06:01:43;6.57;;;2.80;;
10232;SDS011;5161;48.174;11.756;2023-02-02T06:04:09;4.03;;;2.30;;
10232;SDS011;5161;48.174;11.756;2023-02-02T06:06:35;6.80;;;2.90;;
10232;SDS011;5161;48.174;11.756;2023-02-02T06:09:02;4.30;;;2.40;;
10232;SDS011;5161;48.174;11.756;2023-02-02T06:11:28;3.63;;;2.67;;
10232;SDS011;5161;48.174;11.756;2023-02-02T06:13:53;3.50;;;2.60;;
10232;SDS011;5161;48.174;11.756;2023-02-02T06:16:19;3.30;;;2.27;;
10232;SDS011;5161;48.174;11.756;2023-02-02T06:18:44;3.87;;;2.53;;
10232;SDS011;5161;48.174;11.756;2023-02-02T06:21:11;2.97;;;2.40;;
10232;SDS011;5161;48.174;11.756;2023-02-02T06:23:36;6.00;;;2.50;;
10232;SDS011;5161;48.174;11.756;2023-02-02T06:26:02;2.70;;;2.50;;
10232;SDS011;5161;48.174;11.756;2023-02-02T06:28:31;4.30;;;2.40;;
10232;SDS011;5161;48.174;11.756;2023-02-02T06:31:02;4.37;;;2.43;;
10232;SDS011;5161;48.174;11.756;2023-02-02T06:33:28;6.30;;;2.57;;
10232;SDS011;5161;48.174;11.756;2023-02-02T06:35:57;4.07;;;2.33;;
10232;SDS011;5161;48.174;11.756;2023-02-02T06:38:24;4.70;;;2.27;;
10232;SDS011;5161;48.174;11.756;2023-02-02T06:40:50;4.80;;;2.77;;
10232;SDS011;5161;48.174;11.756;2023-02-02T06:43:16;6.43;;;2.40;;
10232;SDS011;5161;48.174;11.756;2023-02-02T06:45:41;4.73;;;2.57;;
10232;SDS011;5161;48.174;11.756;2023-02-02T06:48:07;4.57;;;2.50;;
10232;SDS011;5161;48.174;11.756;2023-02-02T06:50:35;7.67;;;2.47;;
10232;SDS011;5161;48.174;11.756;2023-02-02T06:53:02;5.30;;;2.40;;
10232;SDS011;5161;48.174;11.756;2023-02-02T06:55:27;3.60;;;2.47;;
10232;SDS011;5161;48.174;11.756;2023-02-02T06:57:56;5.27;;;2.57;;
10232;SDS011;5161;48.174;11.756;2023-02-02T07:00:25;4.07;;;2.30;;
10232;SDS011;5161;48.174;11.756;2023-02-02T07:02:52;4.93;;;3.10;;
10232;SDS011;5161;48.174;11.756;2023-02-02T07:05:18;6.03;;;3.30;;
10232;SDS011;5161;48.174;11.756;2023-02-02T07:07:45;6.03;;;2.77;;
10232;SDS011;5161;48.174;11.756;2023-02-02T07:10:10;6.17;;;3.10;;
10232;SDS011;5161;48.174;11.756;2023-02-02T07:12:36;6.47;;;2.97;;
10232;SDS011;5161;48.174;11.756;2023-02-02T07:15:02;4.53;;;2.23;;
10232;SDS011;5161;48.174;11.756;2023-02-02T07:17:28;6.03;;;2.70;;
10232;SDS011;5161;48.174;11.756;2023-02-02T07:19:54;8.37;;;3.20;;
10232;SDS011;5161;48.174;11.756;2023-02-02T07:22:20;5.70;;;3.00;;
10232;SDS011;5161;48.174;11.756;2023-02-02T07:24:45;4.87;;;2.80;;
10232;SDS011;5161;48.174;11.756;2023-02-02T07:27:11;2.93;;;2.50;;
10232;SDS011;5161;48.174;11.756;2023-02-02T07:29:37;4.07;;;2.70;;
10232;SDS011;5161;48.174;11.756;2023-02-02T07:32:03;4.87;;;2.57;;
10232;SDS011;5161;48.174;11.756;2023-02-02T07:34:28;4.17;;;2.67;;
10232;SDS011;5161;48.174;11.756;2023-02-02T07:36:54;5.17;;;2.43;;
10232;SDS011;5161;48.174;11.756;2023-02-02T07:39:21;5.90;;;3.13;;
10232;SDS011;5161;48.174;11.756;2023-02-02T07:41:46;5.93;;;2.73;;
10232;SDS011;5161;48.174;11.756;2023-02-02T07:44:12;6.63;;;2.90;;
10232;SDS011;5161;48.174;11.756;2023-02-02T07:46:45;4.93;;;2.67;;
10232;SDS011;5161;48.174;11.756;2023-02-02T07:49:15;5.07;;;2.70;;
10232;SDS011;5161;48.174;11.756;2023-02-02T07:51:42;4.43;;;2.70;;
10232;SDS011;5161;48.174;11.756;2023-02-02T07:54:08;5.57;;;3.27;;
10232;SDS011;5161;48.174;11.756;2023-02-02T07:56:35;7.37;;;2.90;;
10232;SDS011;5161;48.174;11.756;2023-02-02T07:59:02;6.83;;;2.90;;
10232;SDS011;5161;48.174;11.756;2023-02-02T08:01:28;5.50;;;3.10;;
10232;SDS011;5161;48.174;11.756;2023-02-02T08:03:54;5.87;;;2.87;;
10232;SDS011;5161;48.174;11.756;2023-02-02T08:06:23;5.17;;;2.83;;
10232;SDS011;5161;48.174;11.756;2023-02-02T08:08:52;6.07;;;3.00;;
10232;SDS011;5161;48.174;11.756;2023-02-02T08:11:18;6.57;;;2.83;;
10232;SDS011;5161;48.174;11.756;2023-02-02T08:13:49;5.83;;;3.10;;
10232;SDS011;5161;48.174;11.756;2023-02-02T08:16:16;4.77;;;2.83;;
10232;SDS011;5161;48.174;11.756;2023-02-02T08:18:41;5.60;;;2.83;;
10232;SDS011;5161;48.174;11.756;2023-02-02T08:21:07;5.70;;;2.70;;
10232;SDS011;5161;48.174;11.756;2023-02-02T08:23:34;4.20;;;2.70;;
10232;SDS011;5161;48.174;11.756;2023-02-02T08:26:08;5.43;;;2.80;;
10232;SDS011;5161;48.174;11.756;2023-02-02T08:28:34;5.17;;;2.73;;
10232;SDS011;5161;48.174;11.756;2023-02-02T08:31:04;6.10;;;2.90;;
10232;SDS011;5161;48.174;11.756;2023-02-02T08:33:38;3.17;;;2.47;;
10232;SDS011;5161;48.174;11.756;2023-02-02T08:36:03;3.03;;;2.77;;
10232;SDS011;5161;48.174;11.756;2023-02-02T08:38:32;5.67;;;2.90;;
10232;SDS011;5161;48.174;11.756;2023-02-02T08:41:02;4.83;;;3.00;;
10232;SDS011;5161;48.174;11.756;2023-02-02T08:43:29;6.30;;;2.80;;
10232;SDS011;5161;48.174;11.756;2023-02-02T08:45:55;6.67;;;3.30;;
10232;SDS011;5161;48.174;11.756;2023-02-02T08:48:20;4.07;;;2.50;;
10232;SDS011;5161;48.174;11.756;2023-02-02T08:50:52;5.23;;;2.67;;
10232;SDS011;5161;48.174;11.756;2023-02-02T08:53:19;4.90;;;2.93;;
10232;SDS011;5161;48.174;11.756;2023-02-02T08:55:46;9.87;;;3.60;;
10232;SDS011;5161;48.174;11.756;2023-02-02T08:58:11;6.93;;;3.50;;
10232;SDS011;5161;48.174;11.756;2023-02-02T09:00:37;6.13;;;4.00;;
10232;SDS011;5161;48.174;11.756;2023-02-02T09:03:03;9.80;;;5.77;;
10232;SDS011;5161;48.174;11.756;2023-02-02T09:05:29;7.97;;;5.03;;
10232;SDS011;5161;48.174;11.756;2023-02-02T09:07:54;5.27;;;4.03;;
10232;SDS011;5161;48.174;11.756;2023-02-02T09:10:20;8.03;;;4.20;;
10232;SDS011;5161;48.174;11.756;2023-02-02T09:12:45;6.77;;;3.50;;
10232;SDS011;5161;48.174;11.756;2023-02-02T09:15:11;8.50;;;5.43;;
10232;SDS011;5161;48.174;11.756;2023-02-02T09:17:37;6.63;;;4.20;;
10232;SDS011;5161;48.174;11.756;2023-02-02T09:20:03;7.63;;;3.50;;
10232;SDS011;5161;48.174;11.756;2023-02-02T09:22:29;6.67;;;3.53;;
10232;SDS011;5161;48.174;11.756;2023-02-02T09:24:55;7.17;;;3.50;;
10232;SDS011;5161;48.174;11.756;2023-02-02T09:27:20;5.50;;;3.80;;
10232;SDS011;5161;48.174;11.756;2023-02-02T09:29:46;4.50;;;3.10;;
10232;SDS011;5161;48.174;11.756;2023-02-02T09:32:12;6.67;;;3.40;;
10232;SDS011;5161;48.174;11.756;2023-02-02T09:34:38;5.93;;;3.97;;
10232;SDS011;5161;48.174;11.756;2023-02-02T09:37:03;5.47;;;3.70;;
10232;SDS011;5161;48.174;11.756;2023-02-02T09:39:29;8.10;;;3.73;;
10232;SDS011;5161;48.174;11.756;2023-02-02T09:42:01;5.30;;;3.23;;
10232;SDS011;5161;48.174;11.756;2023-02-02T09:45:37;6.23;;;3.27;;
10232;SDS011;5161;48.174;11.756;2023-02-02T09:50:05;5.20;;;3.13;;
10232;SDS011;5161;48.174;11.756;2023-02-02T09:57:40;4.50;;;3.20;;
10232;SDS011;5161;48.174;11.756;2023-02-02T10:03:02;5.13;;;4.10;;
10232;SDS011;5161;48.174;11.756;2023-02-02T10:08:31;4.17;;;3.27;;
10232;SDS011;5161;48.174;11.756;2023-02-02T10:11:01;5.57;;;3.47;;
10232;SDS011;5161;48.174;11.756;2023-02-02T10:13:47;4.90;;;2.90;;
10232;SDS011;5161;48.174;11.756;2023-02-02T10:16:18;3.90;;;3.50;;
10232;SDS011;5161;48.174;11.756;2023-02-02T10:19:03;7.03;;;3.47;;
10232;SDS011;5161;48.174;11.756;2023-02-02T10:21:36;4.73;;;3.07;;
10232;SDS011;5161;48.174;11.756;2023-02-02T10:24:11;8.37;;;3.53;;
10232;SDS011;5161;48.174;11.756;2023-02-02T10:26:50;6.30;;;3.23;;
10232;SDS011;5161;48.174;11.756;2023-02-02T10:34:37;6.93;;;3.37;;
10232;SDS011;5161;48.174;11.756;2023-02-02T10:45:36;9.40;;;3.57;;
10232;SDS011;5161;48.174;11.756;2023-02-02T10:48:14;5.10;;;3.20;;
10232;SDS011;5161;48.174;11.756;2023-02-02T10:50:44;8.93;;;3.50;;
10232;SDS011;5161;48.174;11.756;2023-02-02T10:53:17;5.90;;;3.20;;
10232;SDS011;5161;48.174;11.756;2023-02-02T10:58:27;8.60;;;3.07;;
10232;SDS011;5161;48.174;11.756;2023-02-02T11:00:56;7.07;;;3.70;;
10232;SDS011;5161;48.174;11.756;2023-02-02T11:03:26;4.33;;;3.20;;
10232;SDS011;5161;48.174;11.756;2023-02-02T11:05:54;5.97;;;3.03;;
10232;SDS011;5161;48.174;11.756;2023-02-02T11:08:43;4.53;;;3.20;;
10232;SDS011;5161;48.174;11.756;2023-02-02T11:11:18;4.93;;;3.07;;
10232;SDS011;5161;48.174;11.756;2023-02-02T11:16:33;6.60;;;3.40;;
10232;SDS011;5161;48.174;11.756;2023-02-02T11:19:00;5.30;;;3.10;;
10232;SDS011;5161;48.174;11.756;2023-02-02T11:21:57;5.17;;;3.00;;
10232;SDS011;5161;48.174;11.756;2023-02-02T11:27:12;4.37;;;2.90;;
10232;SDS011;5161;48.174;11.756;2023-02-02T11:29:45;3.17;;;2.87;;
10232;SDS011;5161;48.174;11.756;2023-02-02T11:32:16;5.07;;;2.73;;
10232;SDS011;5161;48.174;11.756;2023-02-02T11:34:42;5.40;;;2.97;;
10232;SDS011;5161;48.174;11.756;2023-02-02T11:39:46;6.40;;;2.70;;
10232;SDS011;5161;48.174;11.756;2023-02-02T11:42:13;4.23;;;2.97;;
10232;SDS011;5161;48.174;11.756;2023-02-02T11:44:45;3.73;;;2.83;;
10232;SDS011;5161;48.174;11.756;2023-02-02T11:47:29;4.40;;;2.63;;
10232;SDS011;5161;48.174;11.756;2023-02-02T11:49:57;6.70;;;3.00;;
10232;SDS011;5161;48.174;11.756;2023-02-02T11:52:26;5.13;;;2.90;;
10232;SDS011;5161;48.174;11.756;2023-02-02T11:54:54;3.37;;;2.70;;
10232;SDS011;5161;48.174;11.756;2023-02-02T11:57:22;4.10;;;2.50;;
10232;SDS011;5161;48.174;11.756;2023-02-02T11:59:50;4.73;;;2.87;;
10232;SDS011;5161;48.174;11.756;2023-02-02T12:02:31;3.53;;;2.60;;
10232;SDS011;5161;48.174;11.756;2023-02-02T12:07:35;5.67;;;2.90;;
10232;SDS011;5161;48.174;11.756;2023-02-02T12:10:18;4.63;;;2.67;;
10232;SDS011;5161;48.174;11.756;2023-02-02T12:16:04;6.67;;;3.00;;
10232;SDS011;5161;48.174;11.756;2023-02-02T12:21:55;4.03;;;3.00;;
10232;SDS011;5161;48.174;11.756;2023-02-02T12:25:00;5.07;;;2.80;;
10232;SDS011;5161;48.174;11.756;2023-02-02T12:38:09;3.70;;;3.03;;
10232;SDS011;5161;48.174;11.756;2023-02-02T12:43:39;4.13;;;3.30;;
10232;SDS011;5161;48.174;11.756;2023-02-02T12:46:11;3.10;;;2.90;;
10232;SDS011;5161;48.174;11.756;2023-02-02T12:51:38;4.67;;;3.00;;
10232;SDS011;5161;48.174;11.756;2023-02-02T12:55:08;4.23;;;2.90;;
10232;SDS011;5161;48.174;11.756;2023-02-02T13:03:15;3.00;;;2.70;;
10232;SDS011;5161;48.174;11.756;2023-02-02T13:08:24;4.70;;;2.87;;
10232;SDS011;5161;48.174;11.756;2023-02-02T13:10:58;3.47;;;3.00;;
10232;SDS011;5161;48.174;11.756;2023-02-02T13:13:36;3.80;;;2.80;;
10232;SDS011;5161;48.174;11.756;2023-02-02T13:16:05;5.97;;;3.00;;
10232;SDS011;5161;48.174;11.756;2023-02-02T13:18:41;3.70;;;2.93;;
10232;SDS011;5161;48.174;11.756;2023-02-02T13:21:14;6.27;;;2.93;;
10232;SDS011;5161;48.174;11.756;2023-02-02T13:23:52;3.37;;;2.80;;
10232;SDS011;5161;48.174;11.756;2023-02-02T13:26:22;3.67;;;2.97;;
10232;SDS011;5161;48.174;11.756;2023-02-02T13:29:02;4.63;;;3.20;;
10232;SDS011;5161;48.174;11.756;2023-02-02T13:32:35;3.83;;;3.07;;
10232;SDS011;5161;48.174;11.756;2023-02-02T13:40:03;5.03;;;3.50;;
10232;SDS011;5161;48.174;11.756;2023-02-02T13:42:36;3.83;;;3.30;;
10232;SDS011;5161;48.174;11.756;2023-02-02T13:50:41;5.30;;;3.10;;
10232;SDS011;5161;48.174;11.756;2023-02-02T13:59:01;6.53;;;3.60;;
10232;SDS011;5161;48.174;11.756;2023-02-02T14:01:30;5.10;;;3.33;;
10232;SDS011;5161;48.174;11.756;2023-02-02T14:03:56;6.60;;;4.07;;
10232;SDS011;5161;48.174;11.756;2023-02-02T14:06:24;5.50;;;3.60;;
10232;SDS011;5161;48.174;11.756;2023-02-02T14:08:53;5.00;;;3.43;;
10232;SDS011;5161;48.174;11.756;2023-02-02T14:11:29;4.87;;;3.00;;
10232;SDS011;5161;48.174;11.756;2023-02-02T14:13:58;5.33;;;3.77;;
10232;SDS011;5161;48.174;11.756;2023-02-02T14:16:49;4.97;;;3.40;;
10232;SDS011;5161;48.174;11.756;2023-02-02T14:29:33;4.93;;;3.77;;
10232;SDS011;5161;48.174;11.756;2023-02-02T14:34:48;6.70;;;6.07;;
10232;SDS011;5161;48.174;11.756;2023-02-02T14:45:48;7.33;;;3.60;;
10232;SDS011;5161;48.174;11.756;2023-02-02T14:48:36;4.90;;;4.40;;
10232;SDS011;5161;48.174;11.756;2023-02-02T14:51:03;4.40;;;4.00;;
10232;SDS011;5161;48.174;11.756;2023-02-02T14:53:38;5.90;;;3.60;;
10232;SDS011;5161;48.174;11.756;2023-02-02T14:56:14;4.47;;;3.50;;
10232;SDS011;5161;48.174;11.756;2023-02-02T14:58:42;7.23;;;4.30;;
10232;SDS011;5161;48.174;11.756;2023-02-02T15:14:23;6.40;;;4.77;;
10232;SDS011;5161;48.174;11.756;2023-02-02T15:16:54;4.40;;;3.93;;
10232;SDS011;5161;48.174;11.756;2023-02-02T15:19:22;9.37;;;5.90;;
10232;SDS011;5161;48.174;11.756;2023-02-02T15:21:56;8.37;;;5.70;;
10232;SDS011;5161;48.174;11.756;2023-02-02T15:24:43;4.73;;;3.43;;
10232;SDS011;5161;48.174;11.756;2023-02-02T15:27:14;8.10;;;3.90;;
10232;SDS011;5161;48.174;11.756;2023-02-02T15:29:47;6.07;;;4.30;;
10232;SDS011;5161;48.174;11.756;2023-02-02T15:32:17;4.77;;;3.70;;
10232;SDS011;5161;48.174;11.756;2023-02-02T15:34:49;5.47;;;4.23;;
10232;SDS011;5161;48.174;11.756;2023-02-02T15:37:22;7.27;;;4.10;;
10232;SDS011;5161;48.174;11.756;2023-02-02T15:39:54;8.73;;;4.17;;
10232;SDS011;5161;48.174;11.756;2023-02-02T15:42:40;4.43;;;4.03;;
10232;SDS011;5161;48.174;11.756;2023-02-02T15:48:04;5.37;;;3.90;;
10232;SDS011;5161;48.174;11.756;2023-02-02T15:50:37;5.53;;;4.93;;
10232;SDS011;5161;48.174;11.756;2023-02-02T15:53:13;4.87;;;3.70;;
10232;SDS011;5161;48.174;11.756;2023-02-02T15:55:44;4.90;;;3.50;;
10232;SDS011;5161;48.174;11.756;2023-02-02T15:58:23;5.63;;;3.50;;
10232;SDS011;5161;48.174;11.756;2023-02-02T16:01:34;5.63;;;3.60;;
10232;SDS011;5161;48.174;11.756;2023-02-02T16:03:56;5.60;;;3.40;;
10232;SDS011;5161;48.174;11.756;2023-02-02T16:06:44;6.30;;;3.87;;
10232;SDS011;5161;48.174;11.756;2023-02-02T16:09:26;5.23;;;4.10;;
10232;SDS011;5161;48.174;11.756;2023-02-02T16:11:55;6.87;;;4.30;;
10232;SDS011;5161;48.174;11.756;2023-02-02T16:14:21;6.20;;;4.10;;
10232;SDS011;5161;48.174;11.756;2023-02-02T16:16:47;3.40;;;3.10;;
10232;SDS011;5161;48.174;11.756;2023-02-02T16:19:20;5.77;;;3.37;;
10232;SDS011;5161;48.174;11.756;2023-02-02T16:21:50;6.00;;;3.70;;
10232;SDS011;5161;48.174;11.756;2023-02-02T16:24:27;3.60;;;3.30;;
10232;SDS011;5161;48.174;11.756;2023-02-02T16:26:54;5.30;;;3.53;;
10232;SDS011;5161;48.174;11.756;2023-02-02T16:29:23;4.30;;;3.90;;
10232;SDS011;5161;48.174;11.756;2023-02-02T16:31:51;10.97;;;5.20;;
10232;SDS011;5161;48.174;11.756;2023-02-02T16:34:18;5.90;;;5.07;;
10232;SDS011;5161;48.174;11.756;2023-02-02T16:37:10;4.73;;;3.57;;
10232;SDS011;5161;48.174;11.756;2023-02-02T16:39:38;7.27;;;4.10;;
10232;SDS011;5161;48.174;11.756;2023-02-02T16:42:19;4.97;;;3.70;;
10232;SDS011;5161;48.174;11.756;2023-02-02T16:44:46;6.07;;;3.40;;
10232;SDS011;5161;48.174;11.756;2023-02-02T16:49:54;4.73;;;3.93;;
10232;SDS011;5161;48.174;11.756;2023-02-02T16:52:31;5.40;;;3.63;;
10232;SDS011;5161;48.174;11.756;2023-02-02T16:54:58;5.47;;;3.70;;
10232;SDS011;5161;48.174;11.756;2023-02-02T16:57:28;5.17;;;3.53;;
10232;SDS011;5161;48.174;11.756;2023-02-02T16:59:59;4.57;;;3.80;;
10232;SDS011;5161;48.174;11.756;2023-02-02T17:04:59;5.77;;;3.60;;
10232;SDS011;5161;48.174;11.756;2023-02-02T17:07:27;5.93;;;4.00;;
10232;SDS011;5161;48.174;11.756;2023-02-02T17:10:08;5.10;;;3.70;;
10232;SDS011;5161;48.174;11.756;2023-02-02T17:12:42;4.53;;;3.67;;
10232;SDS011;5161;48.174;11.756;2023-02-02T17:17:40;3.60;;;3.27;;
10232;SDS011;5161;48.174;11.756;2023-02-02T17:20:06;5.97;;;3.80;;
10232;SDS011;5161;48.174;11.756;2023-02-02T17:22:33;5.07;;;3.60;;
10232;SDS011;5161;48.174;11.756;2023-02-02T17:25:03;5.10;;;3.87;;
10232;SDS011;5161;48.174;11.756;2023-02-02T17:27:29;4.13;;;3.70;;
10232;SDS011;5161;48.174;11.756;2023-02-02T17:29:56;4.50;;;3.37;;
10232;SDS011;5161;48.174;11.756;2023-02-02T17:32:28;5.30;;;3.90;;
10232;SDS011;5161;48.174;11.756;2023-02-02T17:34:54;6.57;;;4.10;;
10232;SDS011;5161;48.174;11.756;2023-02-02T17:37:20;4.23;;;3.80;;
10232;SDS011;5161;48.174;11.756;2023-02-02T17:39:45;7.90;;;4.43;;
10232;SDS011;5161;48.174;11.756;2023-02-02T17:42:25;5.83;;;4.13;;
10232;SDS011;5161;48.174;11.756;2023-02-02T17:44:52;4.27;;;3.87;;
10232;SDS011;5161;48.174;11.756;2023-02-02T17:47:18;7.17;;;3.87;;